sensor_id;sensor_type;location;lat;lon;timestamp;temperature;humidity
2497;DHT22;1259;48.306;14.374;2022-11-20T00:00:40;0.50;99.90
2497;DHT22;1259;48.306;14.374;2022-11-20T00:03:07;0.50;99.90
2497;DHT22;1259;48.306;14.374;2022-11-20T00:05:34;0.50;99.90
2497;DHT22;1259;48.306;14.374;2022-11-20T00:08:01;0.50;99.90
2497;DHT22;1259;48.306;14.374;2022-11-20T00:10:28;0.50;99.90
2497;DHT22;1259;48.306;14.374;2022-11-20T00:12:55;0.50;99.90
2497;DHT22;1259;48.306;14.374;2022-11-20T00:15:23;0.60;99.90
2497;DHT22;1259;48.306;14.374;2022-11-20T00:17:50;0.60;99.90
2497;DHT22;1259;48.306;14.374;2022-11-20T00:20:17;0.60;99.90
2497;DHT22;1259;48.306;14.374;2022-11-20T00:22:44;0.50;99.90
2497;DHT22;1259;48.306;14.374;2022-11-20T00:25:11;0.50;99.90
2497;DHT22;1259;48.306;14.374;2022-11-20T00:27:38;0.60;99.90
2497;DHT22;1259;48.306;14.374;2022-11-20T00:30:06;0.50;99.90
2497;DHT22;1259;48.306;14.374;2022-11-20T00:32:34;0.20;99.90
2497;DHT22;1259;48.306;14.374;2022-11-20T00:35:01;0.10;99.90
2497;DHT22;1259;48.306;14.374;2022-11-20T00:37:28;0.20;99.90
2497;DHT22;1259;48.306;14.374;2022-11-20T00:39:55;0.30;99.90
2497;DHT22;1259;48.306;14.374;2022-11-20T00:42:22;0.40;99.90
2497;DHT22;1259;48.306;14.374;2022-11-20T00:44:49;0.40;99.90
2497;DHT22;1259;48.306;14.374;2022-11-20T00:47:16;0.40;99.90
2497;DHT22;1259;48.306;14.374;2022-11-20T00:49:44;0.40;99.90
2497;DHT22;1259;48.306;14.374;2022-11-20T00:52:11;0.40;99.90
2497;DHT22;1259;48.306;14.374;2022-11-20T00:54:38;0.40;99.90
2497;DHT22;1259;48.306;14.374;2022-11-20T00:57:05;0.40;99.90
2497;DHT22;1259;48.306;14.374;2022-11-20T00:59:32;0.30;99.90
2497;DHT22;1259;48.306;14.374;2022-11-20T01:01:59;0.30;99.90
2497;DHT22;1259;48.306;14.374;2022-11-20T01:04:26;0.20;99.90
2497;DHT22;1259;48.306;14.374;2022-11-20T01:06:54;0.10;99.90
2497;DHT22;1259;48.306;14.374;2022-11-20T01:09:21;0.00;99.90
2497;DHT22;1259;48.306;14.374;2022-11-20T01:11:48;0.00;99.90
2497;DHT22;1259;48.306;14.374;2022-11-20T01:14:17;0.20;99.90
2497;DHT22;1259;48.306;14.374;2022-11-20T01:16:46;0.20;99.90
2497;DHT22;1259;48.306;14.374;2022-11-20T01:19:15;0.40;99.90
2497;DHT22;1259;48.306;14.374;2022-11-20T01:21:43;0.30;99.90
2497;DHT22;1259;48.306;14.374;2022-11-20T01:24:13;0.10;99.90
2497;DHT22;1259;48.306;14.374;2022-11-20T01:26:42;0.00;99.90
2497;DHT22;1259;48.306;14.374;2022-11-20T01:29:13;0.10;99.90
2497;DHT22;1259;48.306;14.374;2022-11-20T01:31:40;0.20;99.90
2497;DHT22;1259;48.306;14.374;2022-11-20T01:34:10;0.20;99.90
2497;DHT22;1259;48.306;14.374;2022-11-20T01:36:38;0.40;99.90
2497;DHT22;1259;48.306;14.374;2022-11-20T01:39:07;0.30;99.90
2497;DHT22;1259;48.306;14.374;2022-11-20T01:41:36;0.30;99.90
2497;DHT22;1259;48.306;14.374;2022-11-20T01:44:22;0.40;99.90
2497;DHT22;1259;48.306;14.374;2022-11-20T01:46:55;0.40;99.90
2497;DHT22;1259;48.306;14.374;2022-11-20T01:49:27;0.40;99.90
2497;DHT22;1259;48.306;14.374;2022-11-20T01:51:58;0.40;99.90
2497;DHT22;1259;48.306;14.374;2022-11-20T01:54:31;0.30;99.90
2497;DHT22;1259;48.306;14.374;2022-11-20T01:57:03;0.50;99.90
2497;DHT22;1259;48.306;14.374;2022-11-20T01:59:33;0.60;99.90
2497;DHT22;1259;48.306;14.374;2022-11-20T02:02:01;0.50;99.90
2497;DHT22;1259;48.306;14.374;2022-11-20T02:04:28;0.50;99.90
2497;DHT22;1259;48.306;14.374;2022-11-20T02:06:58;0.50;99.90
2497;DHT22;1259;48.306;14.374;2022-11-20T02:09:26;0.60;99.90
2497;DHT22;1259;48.306;14.374;2022-11-20T02:11:53;0.60;99.90
2497;DHT22;1259;48.306;14.374;2022-11-20T02:14:22;0.60;99.90
2497;DHT22;1259;48.306;14.374;2022-11-20T02:16:49;0.60;99.90
2497;DHT22;1259;48.306;14.374;2022-11-20T02:19:22;0.60;99.90
2497;DHT22;1259;48.306;14.374;2022-11-20T02:21:57;0.50;99.90
2497;DHT22;1259;48.306;14.374;2022-11-20T02:24:28;0.40;99.90
2497;DHT22;1259;48.306;14.374;2022-11-20T02:26:58;0.50;99.90
2497;DHT22;1259;48.306;14.374;2022-11-20T02:29:31;0.30;99.90
2497;DHT22;1259;48.306;14.374;2022-11-20T02:32:00;0.30;99.90
2497;DHT22;1259;48.306;14.374;2022-11-20T02:34:27;0.30;99.90
2497;DHT22;1259;48.306;14.374;2022-11-20T02:36:55;0.40;99.90
2497;DHT22;1259;48.306;14.374;2022-11-20T02:39:25;0.40;99.90
2497;DHT22;1259;48.306;14.374;2022-11-20T02:41:55;0.40;99.90
2497;DHT22;1259;48.306;14.374;2022-11-20T02:44:23;0.40;99.90
2497;DHT22;1259;48.306;14.374;2022-11-20T02:46:50;0.50;99.90
2497;DHT22;1259;48.306;14.374;2022-11-20T02:49:17;0.50;99.90
2497;DHT22;1259;48.306;14.374;2022-11-20T02:51:44;0.50;99.90
2497;DHT22;1259;48.306;14.374;2022-11-20T02:54:10;0.60;99.90
2497;DHT22;1259;48.306;14.374;2022-11-20T02:56:38;0.60;99.90
2497;DHT22;1259;48.306;14.374;2022-11-20T02:59:06;0.60;99.90
2497;DHT22;1259;48.306;14.374;2022-11-20T03:01:33;0.60;99.90
2497;DHT22;1259;48.306;14.374;2022-11-20T03:04:00;0.60;99.90
2497;DHT22;1259;48.306;14.374;2022-11-20T03:06:27;0.60;99.90
2497;DHT22;1259;48.306;14.374;2022-11-20T03:08:54;0.40;99.90
2497;DHT22;1259;48.306;14.374;2022-11-20T03:11:21;0.40;99.90
2497;DHT22;1259;48.306;14.374;2022-11-20T03:13:48;0.50;99.90
2497;DHT22;1259;48.306;14.374;2022-11-20T03:16:18;0.60;99.90
2497;DHT22;1259;48.306;14.374;2022-11-20T03:18:45;0.70;99.90
2497;DHT22;1259;48.306;14.374;2022-11-20T03:21:13;0.80;99.90
2497;DHT22;1259;48.306;14.374;2022-11-20T03:23:41;0.80;99.90
2497;DHT22;1259;48.306;14.374;2022-11-20T03:26:10;0.90;99.90
2497;DHT22;1259;48.306;14.374;2022-11-20T03:28:37;0.80;99.90
2497;DHT22;1259;48.306;14.374;2022-11-20T03:31:08;0.80;99.90
2497;DHT22;1259;48.306;14.374;2022-11-20T03:33:37;0.90;99.90
2497;DHT22;1259;48.306;14.374;2022-11-20T03:36:07;0.90;99.90
2497;DHT22;1259;48.306;14.374;2022-11-20T03:38:34;0.90;99.90
2497;DHT22;1259;48.306;14.374;2022-11-20T03:41:03;0.90;99.90
2497;DHT22;1259;48.306;14.374;2022-11-20T03:43:30;0.80;99.90
2497;DHT22;1259;48.306;14.374;2022-11-20T03:45:57;0.90;99.90
2497;DHT22;1259;48.306;14.374;2022-11-20T03:48:24;0.90;99.90
2497;DHT22;1259;48.306;14.374;2022-11-20T03:50:53;1.00;99.90
2497;DHT22;1259;48.306;14.374;2022-11-20T03:53:32;0.90;99.90
2497;DHT22;1259;48.306;14.374;2022-11-20T03:55:59;0.80;99.90
2497;DHT22;1259;48.306;14.374;2022-11-20T03:58:26;0.80;99.90
2497;DHT22;1259;48.306;14.374;2022-11-20T04:00:53;0.80;99.90
2497;DHT22;1259;48.306;14.374;2022-11-20T04:03:20;0.80;99.90
2497;DHT22;1259;48.306;14.374;2022-11-20T04:05:47;0.80;99.90
2497;DHT22;1259;48.306;14.374;2022-11-20T04:08:15;0.80;99.90
2497;DHT22;1259;48.306;14.374;2022-11-20T04:10:42;0.90;99.90
2497;DHT22;1259;48.306;14.374;2022-11-20T04:13:08;0.90;99.90
2497;DHT22;1259;48.306;14.374;2022-11-20T04:15:35;0.90;99.90
2497;DHT22;1259;48.306;14.374;2022-11-20T04:18:03;0.90;99.90
2497;DHT22;1259;48.306;14.374;2022-11-20T04:20:29;0.90;99.90
2497;DHT22;1259;48.306;14.374;2022-11-20T04:22:56;1.00;99.90
2497;DHT22;1259;48.306;14.374;2022-11-20T04:25:25;0.90;99.90
2497;DHT22;1259;48.306;14.374;2022-11-20T04:27:51;0.90;99.90
2497;DHT22;1259;48.306;14.374;2022-11-20T04:30:18;0.90;99.90
2497;DHT22;1259;48.306;14.374;2022-11-20T04:32:45;0.90;99.90
2497;DHT22;1259;48.306;14.374;2022-11-20T04:35:12;1.00;99.90
2497;DHT22;1259;48.306;14.374;2022-11-20T04:37:39;1.00;99.90
2497;DHT22;1259;48.306;14.374;2022-11-20T04:40:07;1.00;99.90
2497;DHT22;1259;48.306;14.374;2022-11-20T04:42:35;1.00;99.90
2497;DHT22;1259;48.306;14.374;2022-11-20T04:45:02;1.00;99.90
2497;DHT22;1259;48.306;14.374;2022-11-20T04:47:29;1.10;99.90
2497;DHT22;1259;48.306;14.374;2022-11-20T04:49:56;1.10;99.90
2497;DHT22;1259;48.306;14.374;2022-11-20T04:52:23;1.10;99.90
2497;DHT22;1259;48.306;14.374;2022-11-20T04:54:50;1.10;99.90
2497;DHT22;1259;48.306;14.374;2022-11-20T04:57:19;1.10;99.90
2497;DHT22;1259;48.306;14.374;2022-11-20T04:59:47;1.10;99.90
2497;DHT22;1259;48.306;14.374;2022-11-20T05:02:14;1.10;99.90
2497;DHT22;1259;48.306;14.374;2022-11-20T05:04:41;1.10;99.90
2497;DHT22;1259;48.306;14.374;2022-11-20T05:07:07;1.20;99.90
2497;DHT22;1259;48.306;14.374;2022-11-20T05:09:34;1.20;99.90
2497;DHT22;1259;48.306;14.374;2022-11-20T05:12:01;1.20;99.90
2497;DHT22;1259;48.306;14.374;2022-11-20T05:14:28;1.30;99.90
2497;DHT22;1259;48.306;14.374;2022-11-20T05:16:57;1.30;99.90
2497;DHT22;1259;48.306;14.374;2022-11-20T05:19:24;1.20;99.90
2497;DHT22;1259;48.306;14.374;2022-11-20T05:21:50;1.10;99.90
2497;DHT22;1259;48.306;14.374;2022-11-20T05:24:17;1.20;99.90
2497;DHT22;1259;48.306;14.374;2022-11-20T05:26:44;1.20;99.90
2497;DHT22;1259;48.306;14.374;2022-11-20T05:29:12;1.20;99.90
2497;DHT22;1259;48.306;14.374;2022-11-20T05:31:39;1.20;99.90
2497;DHT22;1259;48.306;14.374;2022-11-20T05:34:08;1.20;99.90
2497;DHT22;1259;48.306;14.374;2022-11-20T05:36:35;1.10;99.90
2497;DHT22;1259;48.306;14.374;2022-11-20T05:39:02;1.20;99.90
2497;DHT22;1259;48.306;14.374;2022-11-20T05:41:29;1.10;99.90
2497;DHT22;1259;48.306;14.374;2022-11-20T05:43:56;1.10;99.90
2497;DHT22;1259;48.306;14.374;2022-11-20T05:46:24;1.10;99.90
2497;DHT22;1259;48.306;14.374;2022-11-20T05:48:51;1.20;99.90
2497;DHT22;1259;48.306;14.374;2022-11-20T05:51:19;1.20;99.90
2497;DHT22;1259;48.306;14.374;2022-11-20T05:53:46;1.20;99.90
2497;DHT22;1259;48.306;14.374;2022-11-20T05:56:15;1.30;99.90
2497;DHT22;1259;48.306;14.374;2022-11-20T05:58:42;1.20;99.90
2497;DHT22;1259;48.306;14.374;2022-11-20T06:01:12;1.10;99.90
2497;DHT22;1259;48.306;14.374;2022-11-20T06:03:40;1.20;99.90
2497;DHT22;1259;48.306;14.374;2022-11-20T06:06:09;1.20;99.90
2497;DHT22;1259;48.306;14.374;2022-11-20T06:08:37;1.30;99.90
2497;DHT22;1259;48.306;14.374;2022-11-20T06:11:05;1.20;99.90
2497;DHT22;1259;48.306;14.374;2022-11-20T06:13:32;1.20;99.90
2497;DHT22;1259;48.306;14.374;2022-11-20T06:15:59;1.20;99.90
2497;DHT22;1259;48.306;14.374;2022-11-20T06:18:26;1.20;99.90
2497;DHT22;1259;48.306;14.374;2022-11-20T06:21:00;1.30;99.90
2497;DHT22;1259;48.306;14.374;2022-11-20T06:23:29;1.30;99.90
2497;DHT22;1259;48.306;14.374;2022-11-20T06:25:58;1.30;99.90
2497;DHT22;1259;48.306;14.374;2022-11-20T06:28:27;1.40;99.90
2497;DHT22;1259;48.306;14.374;2022-11-20T06:30:54;1.40;99.90
2497;DHT22;1259;48.306;14.374;2022-11-20T06:33:21;1.40;99.90
2497;DHT22;1259;48.306;14.374;2022-11-20T06:35:48;1.40;99.90
2497;DHT22;1259;48.306;14.374;2022-11-20T06:38:15;1.40;99.90
2497;DHT22;1259;48.306;14.374;2022-11-20T06:40:42;1.20;99.90
2497;DHT22;1259;48.306;14.374;2022-11-20T06:43:10;1.30;99.90
2497;DHT22;1259;48.306;14.374;2022-11-20T06:45:37;1.30;99.90
2497;DHT22;1259;48.306;14.374;2022-11-20T06:48:04;1.40;99.90
2497;DHT22;1259;48.306;14.374;2022-11-20T06:50:31;1.40;99.90
2497;DHT22;1259;48.306;14.374;2022-11-20T06:53:01;1.40;99.90
2497;DHT22;1259;48.306;14.374;2022-11-20T06:55:29;1.50;99.90
2497;DHT22;1259;48.306;14.374;2022-11-20T06:57:56;1.30;99.90
2497;DHT22;1259;48.306;14.374;2022-11-20T07:00:24;1.30;99.90
2497;DHT22;1259;48.306;14.374;2022-11-20T07:02:51;1.30;99.90
2497;DHT22;1259;48.306;14.374;2022-11-20T07:05:18;1.40;99.90
2497;DHT22;1259;48.306;14.374;2022-11-20T07:07:45;1.40;99.90
2497;DHT22;1259;48.306;14.374;2022-11-20T07:10:12;1.30;99.90
2497;DHT22;1259;48.306;14.374;2022-11-20T07:12:39;1.40;99.90
2497;DHT22;1259;48.306;14.374;2022-11-20T07:15:07;1.40;99.90
2497;DHT22;1259;48.306;14.374;2022-11-20T07:17:35;1.30;99.90
2497;DHT22;1259;48.306;14.374;2022-11-20T07:20:02;1.30;99.90
2497;DHT22;1259;48.306;14.374;2022-11-20T07:22:29;1.30;99.90
2497;DHT22;1259;48.306;14.374;2022-11-20T07:24:56;1.30;99.90
2497;DHT22;1259;48.306;14.374;2022-11-20T07:27:23;1.30;99.90
2497;DHT22;1259;48.306;14.374;2022-11-20T07:29:50;1.40;99.90
2497;DHT22;1259;48.306;14.374;2022-11-20T07:32:17;1.50;99.90
2497;DHT22;1259;48.306;14.374;2022-11-20T07:34:45;1.50;99.90
2497;DHT22;1259;48.306;14.374;2022-11-20T07:37:12;1.60;99.90
2497;DHT22;1259;48.306;14.374;2022-11-20T07:39:42;1.60;99.90
2497;DHT22;1259;48.306;14.374;2022-11-20T07:42:09;1.60;99.90
2497;DHT22;1259;48.306;14.374;2022-11-20T07:44:37;1.60;99.90
2497;DHT22;1259;48.306;14.374;2022-11-20T07:47:04;1.50;99.90
2497;DHT22;1259;48.306;14.374;2022-11-20T07:49:31;1.50;99.90
2497;DHT22;1259;48.306;14.374;2022-11-20T07:52:00;1.50;99.90
2497;DHT22;1259;48.306;14.374;2022-11-20T07:54:27;1.60;99.90
2497;DHT22;1259;48.306;14.374;2022-11-20T07:56:54;1.50;99.90
2497;DHT22;1259;48.306;14.374;2022-11-20T07:59:24;1.60;99.90
2497;DHT22;1259;48.306;14.374;2022-11-20T08:01:50;1.70;99.90
2497;DHT22;1259;48.306;14.374;2022-11-20T08:04:17;1.70;99.90
2497;DHT22;1259;48.306;14.374;2022-11-20T08:06:44;1.80;99.90
2497;DHT22;1259;48.306;14.374;2022-11-20T08:09:12;1.80;99.90
2497;DHT22;1259;48.306;14.374;2022-11-20T08:11:39;1.60;99.90
2497;DHT22;1259;48.306;14.374;2022-11-20T08:14:24;1.70;99.90
2497;DHT22;1259;48.306;14.374;2022-11-20T08:16:52;1.70;99.90
2497;DHT22;1259;48.306;14.374;2022-11-20T08:19:19;1.60;99.90
2497;DHT22;1259;48.306;14.374;2022-11-20T08:21:46;1.70;99.90
2497;DHT22;1259;48.306;14.374;2022-11-20T08:24:14;1.70;99.90
2497;DHT22;1259;48.306;14.374;2022-11-20T08:26:41;1.80;99.90
2497;DHT22;1259;48.306;14.374;2022-11-20T08:29:08;1.70;99.90
2497;DHT22;1259;48.306;14.374;2022-11-20T08:31:35;1.70;99.90
2497;DHT22;1259;48.306;14.374;2022-11-20T08:34:02;1.70;99.90
2497;DHT22;1259;48.306;14.374;2022-11-20T08:36:33;1.70;99.90
2497;DHT22;1259;48.306;14.374;2022-11-20T08:39:00;1.80;99.90
2497;DHT22;1259;48.306;14.374;2022-11-20T08:41:29;1.80;99.90
2497;DHT22;1259;48.306;14.374;2022-11-20T08:43:59;1.80;99.90
2497;DHT22;1259;48.306;14.374;2022-11-20T08:46:30;1.80;99.90
2497;DHT22;1259;48.306;14.374;2022-11-20T08:48:59;1.90;99.90
2497;DHT22;1259;48.306;14.374;2022-11-20T08:51:26;1.90;99.90
2497;DHT22;1259;48.306;14.374;2022-11-20T08:53:53;1.90;99.90
2497;DHT22;1259;48.306;14.374;2022-11-20T08:56:20;2.00;99.90
2497;DHT22;1259;48.306;14.374;2022-11-20T08:58:49;2.00;99.90
2497;DHT22;1259;48.306;14.374;2022-11-20T09:01:16;2.00;99.90
2497;DHT22;1259;48.306;14.374;2022-11-20T09:03:43;2.00;99.90
2497;DHT22;1259;48.306;14.374;2022-11-20T09:06:10;2.00;99.90
2497;DHT22;1259;48.306;14.374;2022-11-20T09:08:37;2.10;99.90
2497;DHT22;1259;48.306;14.374;2022-11-20T09:11:05;2.10;99.90
2497;DHT22;1259;48.306;14.374;2022-11-20T09:13:33;2.10;99.90
2497;DHT22;1259;48.306;14.374;2022-11-20T09:16:03;2.20;99.90
2497;DHT22;1259;48.306;14.374;2022-11-20T09:18:31;2.20;99.90
2497;DHT22;1259;48.306;14.374;2022-11-20T09:21:00;2.30;99.90
2497;DHT22;1259;48.306;14.374;2022-11-20T09:23:31;2.40;99.90
2497;DHT22;1259;48.306;14.374;2022-11-20T09:26:02;2.50;99.90
2497;DHT22;1259;48.306;14.374;2022-11-20T09:28:30;2.70;99.90
2497;DHT22;1259;48.306;14.374;2022-11-20T09:30:57;2.80;99.90
2497;DHT22;1259;48.306;14.374;2022-11-20T09:33:25;3.00;99.90
2497;DHT22;1259;48.306;14.374;2022-11-20T09:35:52;3.00;99.90
2497;DHT22;1259;48.306;14.374;2022-11-20T09:38:19;3.10;99.90
2497;DHT22;1259;48.306;14.374;2022-11-20T09:40:51;3.20;99.90
2497;DHT22;1259;48.306;14.374;2022-11-20T09:43:23;3.20;99.90
2497;DHT22;1259;48.306;14.374;2022-11-20T09:46:00;3.20;99.90
2497;DHT22;1259;48.306;14.374;2022-11-20T09:48:38;3.30;99.90
2497;DHT22;1259;48.306;14.374;2022-11-20T09:51:16;3.40;99.90
2497;DHT22;1259;48.306;14.374;2022-11-20T09:53:52;3.40;99.90
2497;DHT22;1259;48.306;14.374;2022-11-20T09:56:23;3.40;99.90
2497;DHT22;1259;48.306;14.374;2022-11-20T09:58:52;3.40;99.90
2497;DHT22;1259;48.306;14.374;2022-11-20T10:01:23;3.50;99.90
2497;DHT22;1259;48.306;14.374;2022-11-20T10:03:58;3.70;99.90
2497;DHT22;1259;48.306;14.374;2022-11-20T10:06:30;3.80;99.90
2497;DHT22;1259;48.306;14.374;2022-11-20T10:09:07;3.90;99.90
2497;DHT22;1259;48.306;14.374;2022-11-20T10:11:46;4.00;99.90
2497;DHT22;1259;48.306;14.374;2022-11-20T10:14:20;4.00;99.90
2497;DHT22;1259;48.306;14.374;2022-11-20T10:17:00;4.20;99.90
2497;DHT22;1259;48.306;14.374;2022-11-20T10:19:43;4.20;99.90
2497;DHT22;1259;48.306;14.374;2022-11-20T10:22:21;4.30;99.90
2497;DHT22;1259;48.306;14.374;2022-11-20T10:24:58;4.20;99.90
2497;DHT22;1259;48.306;14.374;2022-11-20T10:27:44;4.30;99.90
2497;DHT22;1259;48.306;14.374;2022-11-20T10:30:15;4.40;99.90
2497;DHT22;1259;48.306;14.374;2022-11-20T10:32:44;4.30;99.90
2497;DHT22;1259;48.306;14.374;2022-11-20T10:35:21;4.30;99.90
2497;DHT22;1259;48.306;14.374;2022-11-20T10:37:54;4.40;99.90
2497;DHT22;1259;48.306;14.374;2022-11-20T10:40:27;4.40;99.90
2497;DHT22;1259;48.306;14.374;2022-11-20T10:42:57;4.60;99.90
2497;DHT22;1259;48.306;14.374;2022-11-20T10:45:38;4.40;99.90
2497;DHT22;1259;48.306;14.374;2022-11-20T10:48:16;4.40;99.90
2497;DHT22;1259;48.306;14.374;2022-11-20T10:50:54;4.40;99.90
2497;DHT22;1259;48.306;14.374;2022-11-20T10:53:47;4.50;99.90
2497;DHT22;1259;48.306;14.374;2022-11-20T10:56:20;4.50;99.90
2497;DHT22;1259;48.306;14.374;2022-11-20T10:59:00;4.60;99.90
2497;DHT22;1259;48.306;14.374;2022-11-20T11:01:29;4.70;99.90
2497;DHT22;1259;48.306;14.374;2022-11-20T11:03:57;4.70;99.90
2497;DHT22;1259;48.306;14.374;2022-11-20T11:06:31;4.70;99.90
2497;DHT22;1259;48.306;14.374;2022-11-20T11:09:06;4.80;99.90
2497;DHT22;1259;48.306;14.374;2022-11-20T11:11:35;4.90;99.90
2497;DHT22;1259;48.306;14.374;2022-11-20T11:14:05;4.80;99.90
2497;DHT22;1259;48.306;14.374;2022-11-20T11:16:32;4.90;99.90
2497;DHT22;1259;48.306;14.374;2022-11-20T11:19:07;5.00;99.90
2497;DHT22;1259;48.306;14.374;2022-11-20T11:21:46;5.00;99.90
2497;DHT22;1259;48.306;14.374;2022-11-20T11:24:20;5.20;99.90
2497;DHT22;1259;48.306;14.374;2022-11-20T11:26:53;5.20;99.90
2497;DHT22;1259;48.306;14.374;2022-11-20T11:29:21;5.30;99.90
2497;DHT22;1259;48.306;14.374;2022-11-20T11:31:49;5.20;99.90
2497;DHT22;1259;48.306;14.374;2022-11-20T11:34:17;5.00;99.90
2497;DHT22;1259;48.306;14.374;2022-11-20T11:36:52;5.00;99.90
2497;DHT22;1259;48.306;14.374;2022-11-20T11:39:21;5.00;99.90
2497;DHT22;1259;48.306;14.374;2022-11-20T11:41:50;5.10;99.90
2497;DHT22;1259;48.306;14.374;2022-11-20T11:44:19;5.10;99.90
2497;DHT22;1259;48.306;14.374;2022-11-20T11:47:09;5.10;99.90
2497;DHT22;1259;48.306;14.374;2022-11-20T11:49:37;5.00;99.90
2497;DHT22;1259;48.306;14.374;2022-11-20T11:52:12;5.10;99.90
2497;DHT22;1259;48.306;14.374;2022-11-20T11:54:45;5.10;99.90
2497;DHT22;1259;48.306;14.374;2022-11-20T11:57:18;5.00;99.90
2497;DHT22;1259;48.306;14.374;2022-11-20T12:00:00;5.00;99.90
2497;DHT22;1259;48.306;14.374;2022-11-20T12:02:34;5.00;99.90
2497;DHT22;1259;48.306;14.374;2022-11-20T12:05:11;5.10;99.90
2497;DHT22;1259;48.306;14.374;2022-11-20T12:07:43;5.20;99.90
2497;DHT22;1259;48.306;14.374;2022-11-20T12:10:19;5.20;99.90
2497;DHT22;1259;48.306;14.374;2022-11-20T12:12:51;5.20;99.90
2497;DHT22;1259;48.306;14.374;2022-11-20T12:15:27;5.10;99.90
2497;DHT22;1259;48.306;14.374;2022-11-20T12:17:55;5.20;99.90
2497;DHT22;1259;48.306;14.374;2022-11-20T12:20:24;5.00;99.90
2497;DHT22;1259;48.306;14.374;2022-11-20T12:22:59;4.90;99.90
2497;DHT22;1259;48.306;14.374;2022-11-20T12:25:30;4.70;99.90
2497;DHT22;1259;48.306;14.374;2022-11-20T12:28:09;4.80;99.90
2497;DHT22;1259;48.306;14.374;2022-11-20T12:30:45;4.60;99.90
2497;DHT22;1259;48.306;14.374;2022-11-20T12:33:40;4.70;99.90
2497;DHT22;1259;48.306;14.374;2022-11-20T12:36:22;4.70;99.90
2497;DHT22;1259;48.306;14.374;2022-11-20T12:42:08;4.70;99.90
2497;DHT22;1259;48.306;14.374;2022-11-20T12:45:29;4.70;99.90
2497;DHT22;1259;48.306;14.374;2022-11-20T12:48:27;4.70;99.90
2497;DHT22;1259;48.306;14.374;2022-11-20T12:51:10;4.80;99.90
2497;DHT22;1259;48.306;14.374;2022-11-20T12:53:49;4.80;99.90
2497;DHT22;1259;48.306;14.374;2022-11-20T12:56:26;4.80;99.90
2497;DHT22;1259;48.306;14.374;2022-11-20T12:59:06;4.80;99.90
2497;DHT22;1259;48.306;14.374;2022-11-20T13:01:40;4.90;99.90
2497;DHT22;1259;48.306;14.374;2022-11-20T13:04:27;4.90;99.90
2497;DHT22;1259;48.306;14.374;2022-11-20T13:07:02;5.00;99.90
2497;DHT22;1259;48.306;14.374;2022-11-20T13:09:42;5.00;99.90
2497;DHT22;1259;48.306;14.374;2022-11-20T13:12:14;4.90;99.90
2497;DHT22;1259;48.306;14.374;2022-11-20T13:14:47;4.90;99.90
2497;DHT22;1259;48.306;14.374;2022-11-20T13:17:21;4.90;99.90
2497;DHT22;1259;48.306;14.374;2022-11-20T13:19:53;4.90;99.90
2497;DHT22;1259;48.306;14.374;2022-11-20T13:22:25;5.00;99.90
2497;DHT22;1259;48.306;14.374;2022-11-20T13:24:52;4.90;99.90
2497;DHT22;1259;48.306;14.374;2022-11-20T13:27:20;4.90;99.90
2497;DHT22;1259;48.306;14.374;2022-11-20T13:30:02;5.00;99.90
2497;DHT22;1259;48.306;14.374;2022-11-20T13:32:48;5.00;99.90
2497;DHT22;1259;48.306;14.374;2022-11-20T13:35:26;5.00;99.90
2497;DHT22;1259;48.306;14.374;2022-11-20T13:38:01;5.00;99.90
2497;DHT22;1259;48.306;14.374;2022-11-20T13:40:28;5.10;99.90
2497;DHT22;1259;48.306;14.374;2022-11-20T13:43:02;5.00;99.90
2497;DHT22;1259;48.306;14.374;2022-11-20T13:45:32;5.00;99.90
2497;DHT22;1259;48.306;14.374;2022-11-20T13:48:02;5.10;99.90
2497;DHT22;1259;48.306;14.374;2022-11-20T13:50:44;5.00;99.90
2497;DHT22;1259;48.306;14.374;2022-11-20T13:53:25;5.10;99.90
2497;DHT22;1259;48.306;14.374;2022-11-20T13:55:55;5.10;99.90
2497;DHT22;1259;48.306;14.374;2022-11-20T13:58:36;5.10;99.90
2497;DHT22;1259;48.306;14.374;2022-11-20T14:01:11;5.10;99.90
2497;DHT22;1259;48.306;14.374;2022-11-20T14:03:41;5.00;99.90
2497;DHT22;1259;48.306;14.374;2022-11-20T14:06:12;5.10;99.90
2497;DHT22;1259;48.306;14.374;2022-11-20T14:08:44;5.10;99.90
2497;DHT22;1259;48.306;14.374;2022-11-20T14:11:15;5.10;99.90
2497;DHT22;1259;48.306;14.374;2022-11-20T14:13:56;5.10;99.90
2497;DHT22;1259;48.306;14.374;2022-11-20T14:16:27;5.20;99.90
2497;DHT22;1259;48.306;14.374;2022-11-20T14:18:55;5.10;99.90
2497;DHT22;1259;48.306;14.374;2022-11-20T14:21:24;5.20;99.90
2497;DHT22;1259;48.306;14.374;2022-11-20T14:23:53;5.10;99.90
2497;DHT22;1259;48.306;14.374;2022-11-20T14:26:20;5.10;99.90
2497;DHT22;1259;48.306;14.374;2022-11-20T14:28:49;5.20;99.90
2497;DHT22;1259;48.306;14.374;2022-11-20T14:31:23;5.30;99.90
2497;DHT22;1259;48.306;14.374;2022-11-20T14:33:53;5.30;99.90
2497;DHT22;1259;48.306;14.374;2022-11-20T14:36:21;5.20;99.90
2497;DHT22;1259;48.306;14.374;2022-11-20T14:38:49;5.20;99.90
2497;DHT22;1259;48.306;14.374;2022-11-20T14:41:18;5.20;99.90
2497;DHT22;1259;48.306;14.374;2022-11-20T14:43:47;5.10;99.90
2497;DHT22;1259;48.306;14.374;2022-11-20T14:46:14;5.20;99.90
2497;DHT22;1259;48.306;14.374;2022-11-20T14:48:44;5.10;99.90
2497;DHT22;1259;48.306;14.374;2022-11-20T14:51:23;5.10;99.90
2497;DHT22;1259;48.306;14.374;2022-11-20T14:53:52;5.10;99.90
2497;DHT22;1259;48.306;14.374;2022-11-20T14:56:22;5.00;99.90
2497;DHT22;1259;48.306;14.374;2022-11-20T14:58:56;5.00;99.90
2497;DHT22;1259;48.306;14.374;2022-11-20T15:01:26;5.00;99.90
2497;DHT22;1259;48.306;14.374;2022-11-20T15:04:00;5.10;99.90
2497;DHT22;1259;48.306;14.374;2022-11-20T15:06:29;5.10;99.90
2497;DHT22;1259;48.306;14.374;2022-11-20T15:08:57;5.20;99.90
2497;DHT22;1259;48.306;14.374;2022-11-20T15:11:28;5.10;99.90
2497;DHT22;1259;48.306;14.374;2022-11-20T15:13:57;5.20;99.90
2497;DHT22;1259;48.306;14.374;2022-11-20T15:16:24;5.20;99.90
2497;DHT22;1259;48.306;14.374;2022-11-20T15:18:53;5.20;99.90
2497;DHT22;1259;48.306;14.374;2022-11-20T15:21:22;5.10;99.90
2497;DHT22;1259;48.306;14.374;2022-11-20T15:23:52;5.10;99.90
2497;DHT22;1259;48.306;14.374;2022-11-20T15:26:23;5.10;99.90
2497;DHT22;1259;48.306;14.374;2022-11-20T15:28:52;5.10;99.90
2497;DHT22;1259;48.306;14.374;2022-11-20T15:31:21;5.00;99.90
2497;DHT22;1259;48.306;14.374;2022-11-20T15:33:49;5.00;99.90
2497;DHT22;1259;48.306;14.374;2022-11-20T15:36:16;5.00;99.90
2497;DHT22;1259;48.306;14.374;2022-11-20T15:38:43;5.00;99.90
2497;DHT22;1259;48.306;14.374;2022-11-20T15:41:12;5.00;99.90
2497;DHT22;1259;48.306;14.374;2022-11-20T15:43:39;4.90;99.90
2497;DHT22;1259;48.306;14.374;2022-11-20T15:46:10;4.90;99.90
2497;DHT22;1259;48.306;14.374;2022-11-20T15:48:39;4.90;99.90
2497;DHT22;1259;48.306;14.374;2022-11-20T15:51:16;4.80;99.90
2497;DHT22;1259;48.306;14.374;2022-11-20T15:53:45;4.90;99.90
2497;DHT22;1259;48.306;14.374;2022-11-20T15:56:14;4.90;99.90
2497;DHT22;1259;48.306;14.374;2022-11-20T15:58:43;4.90;99.90
2497;DHT22;1259;48.306;14.374;2022-11-20T16:01:11;4.90;99.90
2497;DHT22;1259;48.306;14.374;2022-11-20T16:03:38;4.90;99.90
2497;DHT22;1259;48.306;14.374;2022-11-20T16:06:05;4.80;99.90
2497;DHT22;1259;48.306;14.374;2022-11-20T16:08:32;4.80;99.90
2497;DHT22;1259;48.306;14.374;2022-11-20T16:10:59;4.60;99.90
2497;DHT22;1259;48.306;14.374;2022-11-20T16:13:28;4.60;99.90
2497;DHT22;1259;48.306;14.374;2022-11-20T16:16:19;4.50;99.90
2497;DHT22;1259;48.306;14.374;2022-11-20T16:18:48;4.50;99.90
2497;DHT22;1259;48.306;14.374;2022-11-20T16:21:15;4.50;99.90
2497;DHT22;1259;48.306;14.374;2022-11-20T16:23:42;4.50;99.90